sensor_id;sensor_type;location;lat;lon;timestamp;P1;durP1;ratioP1;P2;durP2;ratioP2
12042;SDS011;6082;49.306;12.862;2023-07-31T00:00:10;4.70;;;2.40;;
12042;SDS011;6082;49.306;12.862;2023-07-31T00:02:37;5.57;;;2.27;;
12042;SDS011;6082;49.306;12.862;2023-07-31T00:05:03;2.43;;;1.93;;
12042;SDS011;6082;49.306;12.862;2023-07-31T00:07:29;5.57;;;1.90;;
12042;SDS011;6082;49.306;12.862;2023-07-31T00:09:55;2.07;;;1.87;;
12042;SDS011;6082;49.306;12.862;2023-07-31T00:12:23;3.00;;;2.10;;
12042;SDS011;6082;49.306;12.862;2023-07-31T00:14:49;2.30;;;2.10;;
12042;SDS011;6082;49.306;12.862;2023-07-31T00:17:17;2.77;;;1.73;;
12042;SDS011;6082;49.306;12.862;2023-07-31T00:19:43;3.43;;;1.80;;
12042;SDS011;6082;49.306;12.862;2023-07-31T00:22:11;3.50;;;1.60;;
12042;SDS011;6082;49.306;12.862;2023-07-31T00:24:38;2.20;;;1.60;;
12042;SDS011;6082;49.306;12.862;2023-07-31T00:27:04;2.20;;;1.60;;
12042;SDS011;6082;49.306;12.862;2023-07-31T00:29:30;3.53;;;1.73;;
12042;SDS011;6082;49.306;12.862;2023-07-31T00:31:55;3.50;;;1.80;;
12042;SDS011;6082;49.306;12.862;2023-07-31T00:34:21;2.27;;;1.90;;
12042;SDS011;6082;49.306;12.862;2023-07-31T00:36:47;3.80;;;1.60;;
12042;SDS011;6082;49.306;12.862;2023-07-31T00:39:13;3.47;;;2.17;;
12042;SDS011;6082;49.306;12.862;2023-07-31T00:41:38;5.27;;;2.00;;
12042;SDS011;6082;49.306;12.862;2023-07-31T00:44:04;4.70;;;1.80;;
12042;SDS011;6082;49.306;12.862;2023-07-31T00:46:30;2.50;;;1.60;;
12042;SDS011;6082;49.306;12.862;2023-07-31T00:48:56;1.67;;;1.50;;
12042;SDS011;6082;49.306;12.862;2023-07-31T00:51:22;2.60;;;1.87;;
12042;SDS011;6082;49.306;12.862;2023-07-31T00:53:48;2.77;;;1.87;;
12042;SDS011;6082;49.306;12.862;2023-07-31T00:56:14;2.33;;;1.90;;
12042;SDS011;6082;49.306;12.862;2023-07-31T00:58:40;2.50;;;1.70;;
12042;SDS011;6082;49.306;12.862;2023-07-31T01:01:06;1.93;;;1.70;;
12042;SDS011;6082;49.306;12.862;2023-07-31T01:03:32;3.00;;;2.03;;
12042;SDS011;6082;49.306;12.862;2023-07-31T01:11:27;2.07;;;1.87;;
12042;SDS011;6082;49.306;12.862;2023-07-31T01:13:59;2.30;;;1.63;;
12042;SDS011;6082;49.306;12.862;2023-07-31T01:16:25;3.77;;;2.20;;
12042;SDS011;6082;49.306;12.862;2023-07-31T01:18:52;2.13;;;1.93;;
12042;SDS011;6082;49.306;12.862;2023-07-31T01:26:39;4.80;;;2.13;;
12042;SDS011;6082;49.306;12.862;2023-07-31T01:29:20;2.50;;;2.30;;
12042;SDS011;6082;49.306;12.862;2023-07-31T01:31:52;2.83;;;2.00;;
12042;SDS011;6082;49.306;12.862;2023-07-31T01:34:20;2.00;;;1.63;;
12042;SDS011;6082;49.306;12.862;2023-07-31T01:36:47;4.83;;;2.20;;
12042;SDS011;6082;49.306;12.862;2023-07-31T01:39:13;2.57;;;2.00;;
12042;SDS011;6082;49.306;12.862;2023-07-31T01:41:40;4.57;;;2.37;;
12042;SDS011;6082;49.306;12.862;2023-07-31T01:44:06;2.73;;;2.27;;
12042;SDS011;6082;49.306;12.862;2023-07-31T01:46:32;2.10;;;1.90;;
12042;SDS011;6082;49.306;12.862;2023-07-31T01:48:58;3.90;;;2.33;;
12042;SDS011;6082;49.306;12.862;2023-07-31T01:51:23;3.83;;;2.03;;
12042;SDS011;6082;49.306;12.862;2023-07-31T01:53:49;3.90;;;2.20;;
12042;SDS011;6082;49.306;12.862;2023-07-31T01:56:15;3.47;;;2.10;;
12042;SDS011;6082;49.306;12.862;2023-07-31T01:58:43;4.40;;;2.30;;
12042;SDS011;6082;49.306;12.862;2023-07-31T02:01:09;4.87;;;2.57;;
12042;SDS011;6082;49.306;12.862;2023-07-31T02:03:35;3.50;;;2.47;;
12042;SDS011;6082;49.306;12.862;2023-07-31T02:06:00;4.20;;;2.47;;
12042;SDS011;6082;49.306;12.862;2023-07-31T02:08:26;4.60;;;2.27;;
12042;SDS011;6082;49.306;12.862;2023-07-31T02:10:52;3.73;;;2.20;;
12042;SDS011;6082;49.306;12.862;2023-07-31T02:13:19;3.50;;;2.20;;
12042;SDS011;6082;49.306;12.862;2023-07-31T02:15:45;2.80;;;2.23;;
12042;SDS011;6082;49.306;12.862;2023-07-31T02:18:10;3.93;;;2.10;;
12042;SDS011;6082;49.306;12.862;2023-07-31T02:20:39;3.20;;;2.20;;
12042;SDS011;6082;49.306;12.862;2023-07-31T02:23:05;3.97;;;2.03;;
12042;SDS011;6082;49.306;12.862;2023-07-31T02:25:30;2.33;;;2.07;;
12042;SDS011;6082;49.306;12.862;2023-07-31T02:27:56;3.03;;;2.17;;
12042;SDS011;6082;49.306;12.862;2023-07-31T02:30:22;3.40;;;2.47;;
12042;SDS011;6082;49.306;12.862;2023-07-31T02:32:47;2.80;;;2.07;;
12042;SDS011;6082;49.306;12.862;2023-07-31T02:35:13;2.17;;;1.97;;
12042;SDS011;6082;49.306;12.862;2023-07-31T02:37:40;3.33;;;2.20;;
12042;SDS011;6082;49.306;12.862;2023-07-31T02:40:07;2.67;;;2.17;;
12042;SDS011;6082;49.306;12.862;2023-07-31T02:42:33;4.37;;;1.90;;
12042;SDS011;6082;49.306;12.862;2023-07-31T02:44:58;5.60;;;2.30;;
12042;SDS011;6082;49.306;12.862;2023-07-31T02:47:24;5.40;;;2.30;;
12042;SDS011;6082;49.306;12.862;2023-07-31T02:49:50;3.23;;;2.10;;
12042;SDS011;6082;49.306;12.862;2023-07-31T02:52:16;3.63;;;2.47;;
12042;SDS011;6082;49.306;12.862;2023-07-31T02:54:41;2.97;;;2.20;;
12042;SDS011;6082;49.306;12.862;2023-07-31T02:57:07;2.40;;;1.90;;
12042;SDS011;6082;49.306;12.862;2023-07-31T02:59:33;3.20;;;2.30;;
12042;SDS011;6082;49.306;12.862;2023-07-31T03:01:58;2.13;;;1.93;;
12042;SDS011;6082;49.306;12.862;2023-07-31T03:04:24;4.33;;;2.37;;
12042;SDS011;6082;49.306;12.862;2023-07-31T03:06:50;3.03;;;2.10;;
12042;SDS011;6082;49.306;12.862;2023-07-31T03:09:15;3.90;;;2.27;;
12042;SDS011;6082;49.306;12.862;2023-07-31T03:11:41;2.60;;;1.97;;
12042;SDS011;6082;49.306;12.862;2023-07-31T03:14:07;4.93;;;2.33;;
12042;SDS011;6082;49.306;12.862;2023-07-31T03:16:33;4.13;;;2.30;;
12042;SDS011;6082;49.306;12.862;2023-07-31T03:18:58;3.30;;;2.10;;
12042;SDS011;6082;49.306;12.862;2023-07-31T03:21:24;4.83;;;2.10;;
12042;SDS011;6082;49.306;12.862;2023-07-31T03:23:50;2.60;;;2.03;;
12042;SDS011;6082;49.306;12.862;2023-07-31T03:26:16;5.10;;;2.20;;
12042;SDS011;6082;49.306;12.862;2023-07-31T03:28:41;5.07;;;2.03;;
12042;SDS011;6082;49.306;12.862;2023-07-31T03:31:07;6.90;;;1.93;;
12042;SDS011;6082;49.306;12.862;2023-07-31T03:33:33;3.20;;;2.00;;
12042;SDS011;6082;49.306;12.862;2023-07-31T03:35:59;4.90;;;1.93;;
12042;SDS011;6082;49.306;12.862;2023-07-31T03:38:25;2.97;;;1.80;;
12042;SDS011;6082;49.306;12.862;2023-07-31T03:40:51;4.13;;;1.70;;
12042;SDS011;6082;49.306;12.862;2023-07-31T03:43:16;3.77;;;1.93;;
12042;SDS011;6082;49.306;12.862;2023-07-31T03:45:42;3.63;;;2.00;;
12042;SDS011;6082;49.306;12.862;2023-07-31T03:48:08;3.37;;;2.20;;
12042;SDS011;6082;49.306;12.862;2023-07-31T03:50:34;3.23;;;2.10;;
12042;SDS011;6082;49.306;12.862;2023-07-31T03:52:59;2.23;;;2.03;;
12042;SDS011;6082;49.306;12.862;2023-07-31T03:55:25;3.53;;;2.27;;
12042;SDS011;6082;49.306;12.862;2023-07-31T03:57:51;1.97;;;1.70;;
12042;SDS011;6082;49.306;12.862;2023-07-31T04:00:16;3.10;;;2.20;;
12042;SDS011;6082;49.306;12.862;2023-07-31T04:02:42;4.03;;;2.10;;
12042;SDS011;6082;49.306;12.862;2023-07-31T04:05:08;3.10;;;1.80;;
12042;SDS011;6082;49.306;12.862;2023-07-31T04:07:34;2.83;;;1.90;;
12042;SDS011;6082;49.306;12.862;2023-07-31T04:10:00;2.30;;;1.90;;
12042;SDS011;6082;49.306;12.862;2023-07-31T04:12:25;2.93;;;1.70;;
12042;SDS011;6082;49.306;12.862;2023-07-31T04:14:51;3.70;;;2.00;;
12042;SDS011;6082;49.306;12.862;2023-07-31T04:17:17;3.17;;;2.00;;
12042;SDS011;6082;49.306;12.862;2023-07-31T04:19:43;4.77;;;1.90;;
12042;SDS011;6082;49.306;12.862;2023-07-31T04:22:09;2.00;;;1.83;;
12042;SDS011;6082;49.306;12.862;2023-07-31T04:24:35;4.50;;;2.20;;
12042;SDS011;6082;49.306;12.862;2023-07-31T04:27:00;3.43;;;2.07;;
12042;SDS011;6082;49.306;12.862;2023-07-31T04:29:26;2.83;;;1.77;;
12042;SDS011;6082;49.306;12.862;2023-07-31T04:31:52;4.90;;;1.93;;
12042;SDS011;6082;49.306;12.862;2023-07-31T04:34:17;3.17;;;1.70;;
12042;SDS011;6082;49.306;12.862;2023-07-31T04:36:43;2.77;;;1.70;;
12042;SDS011;6082;49.306;12.862;2023-07-31T04:39:09;4.23;;;2.13;;
12042;SDS011;6082;49.306;12.862;2023-07-31T04:41:35;4.57;;;2.17;;
12042;SDS011;6082;49.306;12.862;2023-07-31T04:44:01;3.30;;;2.10;;
12042;SDS011;6082;49.306;12.862;2023-07-31T04:46:26;3.37;;;2.27;;
12042;SDS011;6082;49.306;12.862;2023-07-31T04:48:52;4.03;;;2.33;;
12042;SDS011;6082;49.306;12.862;2023-07-31T04:51:18;3.43;;;1.80;;
12042;SDS011;6082;49.306;12.862;2023-07-31T04:53:44;3.33;;;2.20;;
12042;SDS011;6082;49.306;12.862;2023-07-31T04:56:09;3.33;;;2.20;;
12042;SDS011;6082;49.306;12.862;2023-07-31T04:58:35;3.13;;;2.20;;
12042;SDS011;6082;49.306;12.862;2023-07-31T05:01:00;2.37;;;2.00;;
12042;SDS011;6082;49.306;12.862;2023-07-31T05:03:26;4.03;;;2.23;;
12042;SDS011;6082;49.306;12.862;2023-07-31T05:05:52;2.60;;;1.90;;
12042;SDS011;6082;49.306;12.862;2023-07-31T05:08:18;4.80;;;2.27;;
12042;SDS011;6082;49.306;12.862;2023-07-31T05:10:44;4.57;;;2.10;;
12042;SDS011;6082;49.306;12.862;2023-07-31T05:13:09;3.70;;;2.20;;
12042;SDS011;6082;49.306;12.862;2023-07-31T05:15:35;3.23;;;2.17;;
12042;SDS011;6082;49.306;12.862;2023-07-31T05:18:01;3.93;;;2.20;;
12042;SDS011;6082;49.306;12.862;2023-07-31T05:20:26;2.77;;;1.97;;
12042;SDS011;6082;49.306;12.862;2023-07-31T05:22:52;3.63;;;2.13;;
12042;SDS011;6082;49.306;12.862;2023-07-31T05:25:18;5.17;;;2.30;;
12042;SDS011;6082;49.306;12.862;2023-07-31T05:27:44;2.60;;;1.90;;
12042;SDS011;6082;49.306;12.862;2023-07-31T05:30:10;3.63;;;2.13;;
12042;SDS011;6082;49.306;12.862;2023-07-31T05:32:36;3.03;;;2.00;;
12042;SDS011;6082;49.306;12.862;2023-07-31T05:35:01;3.97;;;1.67;;
12042;SDS011;6082;49.306;12.862;2023-07-31T05:37:27;2.53;;;2.00;;
12042;SDS011;6082;49.306;12.862;2023-07-31T05:39:53;4.30;;;2.10;;
12042;SDS011;6082;49.306;12.862;2023-07-31T05:42:19;3.40;;;2.10;;
12042;SDS011;6082;49.306;12.862;2023-07-31T05:44:44;5.30;;;1.90;;
12042;SDS011;6082;49.306;12.862;2023-07-31T05:47:10;2.77;;;2.00;;
12042;SDS011;6082;49.306;12.862;2023-07-31T05:49:36;4.77;;;1.90;;
12042;SDS011;6082;49.306;12.862;2023-07-31T05:52:02;3.53;;;1.80;;
12042;SDS011;6082;49.306;12.862;2023-07-31T05:54:28;4.03;;;2.27;;
12042;SDS011;6082;49.306;12.862;2023-07-31T05:56:53;8.77;;;2.10;;
12042;SDS011;6082;49.306;12.862;2023-07-31T05:59:19;3.83;;;1.80;;
12042;SDS011;6082;49.306;12.862;2023-07-31T06:01:45;3.60;;;1.90;;
12042;SDS011;6082;49.306;12.862;2023-07-31T06:04:10;1.97;;;1.63;;
12042;SDS011;6082;49.306;12.862;2023-07-31T06:06:37;2.90;;;1.90;;
12042;SDS011;6082;49.306;12.862;2023-07-31T06:09:02;3.37;;;1.83;;
12042;SDS011;6082;49.306;12.862;2023-07-31T06:11:28;3.80;;;1.73;;
12042;SDS011;6082;49.306;12.862;2023-07-31T06:13:54;2.80;;;1.97;;
12042;SDS011;6082;49.306;12.862;2023-07-31T06:16:20;2.50;;;2.07;;
12042;SDS011;6082;49.306;12.862;2023-07-31T06:18:46;3.80;;;1.90;;
12042;SDS011;6082;49.306;12.862;2023-07-31T06:21:12;1.87;;;1.63;;
12042;SDS011;6082;49.306;12.862;2023-07-31T06:23:38;3.60;;;1.90;;
12042;SDS011;6082;49.306;12.862;2023-07-31T06:26:04;2.17;;;1.90;;
12042;SDS011;6082;49.306;12.862;2023-07-31T06:28:30;3.70;;;1.83;;
12042;SDS011;6082;49.306;12.862;2023-07-31T06:30:57;2.70;;;1.73;;
12042;SDS011;6082;49.306;12.862;2023-07-31T06:33:23;2.93;;;1.63;;
12042;SDS011;6082;49.306;12.862;2023-07-31T06:35:50;3.07;;;1.73;;
12042;SDS011;6082;49.306;12.862;2023-07-31T06:38:16;3.57;;;1.60;;
12042;SDS011;6082;49.306;12.862;2023-07-31T06:40:44;1.90;;;1.57;;
12042;SDS011;6082;49.306;12.862;2023-07-31T06:43:09;2.97;;;1.37;;
12042;SDS011;6082;49.306;12.862;2023-07-31T06:45:35;3.37;;;1.43;;
12042;SDS011;6082;49.306;12.862;2023-07-31T06:48:03;2.00;;;1.50;;
12042;SDS011;6082;49.306;12.862;2023-07-31T06:50:29;3.10;;;1.50;;
12042;SDS011;6082;49.306;12.862;2023-07-31T06:52:56;3.17;;;1.47;;
12042;SDS011;6082;49.306;12.862;2023-07-31T06:55:22;5.53;;;1.70;;
12042;SDS011;6082;49.306;12.862;2023-07-31T06:57:52;2.37;;;1.47;;
12042;SDS011;6082;49.306;12.862;2023-07-31T07:00:19;5.30;;;1.40;;
12042;SDS011;6082;49.306;12.862;2023-07-31T07:02:46;1.53;;;1.30;;
12042;SDS011;6082;49.306;12.862;2023-07-31T07:05:13;4.00;;;1.53;;
12042;SDS011;6082;49.306;12.862;2023-07-31T07:07:39;4.63;;;1.83;;
12042;SDS011;6082;49.306;12.862;2023-07-31T07:10:05;3.60;;;1.60;;
12042;SDS011;6082;49.306;12.862;2023-07-31T07:12:31;3.70;;;1.70;;
12042;SDS011;6082;49.306;12.862;2023-07-31T07:14:58;3.67;;;1.67;;
12042;SDS011;6082;49.306;12.862;2023-07-31T07:17:25;3.50;;;2.00;;
12042;SDS011;6082;49.306;12.862;2023-07-31T07:19:51;3.83;;;2.50;;
12042;SDS011;6082;49.306;12.862;2023-07-31T07:22:23;3.57;;;1.97;;
12042;SDS011;6082;49.306;12.862;2023-07-31T07:24:49;2.80;;;1.60;;
12042;SDS011;6082;49.306;12.862;2023-07-31T07:27:15;4.07;;;1.53;;
12042;SDS011;6082;49.306;12.862;2023-07-31T07:29:41;2.00;;;1.63;;
12042;SDS011;6082;49.306;12.862;2023-07-31T07:32:07;2.53;;;1.50;;
12042;SDS011;6082;49.306;12.862;2023-07-31T07:34:33;1.57;;;1.40;;
12042;SDS011;6082;49.306;12.862;2023-07-31T07:37:01;3.83;;;1.57;;
12042;SDS011;6082;49.306;12.862;2023-07-31T07:39:27;2.57;;;1.40;;
12042;SDS011;6082;49.306;12.862;2023-07-31T07:41:53;2.03;;;1.50;;
12042;SDS011;6082;49.306;12.862;2023-07-31T07:44:19;2.83;;;1.37;;
12042;SDS011;6082;49.306;12.862;2023-07-31T07:46:44;2.07;;;1.30;;
12042;SDS011;6082;49.306;12.862;2023-07-31T07:49:10;2.97;;;1.40;;
12042;SDS011;6082;49.306;12.862;2023-07-31T07:51:36;1.37;;;1.27;;
12042;SDS011;6082;49.306;12.862;2023-07-31T07:54:02;2.83;;;1.50;;
12042;SDS011;6082;49.306;12.862;2023-07-31T07:56:28;2.50;;;1.37;;
12042;SDS011;6082;49.306;12.862;2023-07-31T07:58:54;2.37;;;1.40;;
12042;SDS011;6082;49.306;12.862;2023-07-31T08:01:20;2.23;;;1.40;;
12042;SDS011;6082;49.306;12.862;2023-07-31T08:03:46;2.50;;;1.23;;
12042;SDS011;6082;49.306;12.862;2023-07-31T08:06:12;1.60;;;1.10;;
12042;SDS011;6082;49.306;12.862;2023-07-31T08:08:38;2.43;;;1.60;;
12042;SDS011;6082;49.306;12.862;2023-07-31T08:11:04;2.80;;;1.60;;
12042;SDS011;6082;49.306;12.862;2023-07-31T08:13:29;3.77;;;1.60;;
12042;SDS011;6082;49.306;12.862;2023-07-31T08:15:55;1.80;;;1.20;;
12042;SDS011;6082;49.306;12.862;2023-07-31T08:18:21;2.20;;;1.47;;
12042;SDS011;6082;49.306;12.862;2023-07-31T08:20:47;2.27;;;1.40;;
12042;SDS011;6082;49.306;12.862;2023-07-31T08:23:12;2.20;;;1.33;;
12042;SDS011;6082;49.306;12.862;2023-07-31T08:25:38;1.93;;;1.23;;
12042;SDS011;6082;49.306;12.862;2023-07-31T08:28:05;2.60;;;1.43;;
12042;SDS011;6082;49.306;12.862;2023-07-31T08:30:31;3.87;;;1.43;;
12042;SDS011;6082;49.306;12.862;2023-07-31T08:32:58;2.60;;;1.47;;
12042;SDS011;6082;49.306;12.862;2023-07-31T08:35:24;2.37;;;1.50;;
12042;SDS011;6082;49.306;12.862;2023-07-31T08:37:51;2.73;;;1.53;;
12042;SDS011;6082;49.306;12.862;2023-07-31T08:40:17;3.03;;;1.70;;
12042;SDS011;6082;49.306;12.862;2023-07-31T08:42:46;1.57;;;1.20;;
12042;SDS011;6082;49.306;12.862;2023-07-31T08:45:16;2.73;;;1.70;;
12042;SDS011;6082;49.306;12.862;2023-07-31T08:47:44;1.63;;;1.30;;
12042;SDS011;6082;49.306;12.862;2023-07-31T08:50:15;3.13;;;1.40;;
12042;SDS011;6082;49.306;12.862;2023-07-31T08:52:43;2.40;;;1.50;;
12042;SDS011;6082;49.306;12.862;2023-07-31T08:55:08;3.63;;;1.87;;
12042;SDS011;6082;49.306;12.862;2023-07-31T08:57:36;3.90;;;1.60;;
12042;SDS011;6082;49.306;12.862;2023-07-31T09:00:06;2.97;;;1.30;;
12042;SDS011;6082;49.306;12.862;2023-07-31T09:02:46;2.73;;;1.50;;
12042;SDS011;6082;49.306;12.862;2023-07-31T09:05:18;3.90;;;1.77;;
12042;SDS011;6082;49.306;12.862;2023-07-31T09:07:45;2.03;;;1.53;;
12042;SDS011;6082;49.306;12.862;2023-07-31T09:10:12;2.73;;;1.70;;
12042;SDS011;6082;49.306;12.862;2023-07-31T09:12:38;1.93;;;1.70;;
12042;SDS011;6082;49.306;12.862;2023-07-31T09:15:04;3.13;;;1.57;;
12042;SDS011;6082;49.306;12.862;2023-07-31T09:17:34;4.03;;;1.87;;
12042;SDS011;6082;49.306;12.862;2023-07-31T09:20:17;4.33;;;1.90;;
12042;SDS011;6082;49.306;12.862;2023-07-31T09:22:48;2.00;;;1.50;;
12042;SDS011;6082;49.306;12.862;2023-07-31T09:25:15;3.17;;;1.40;;
12042;SDS011;6082;49.306;12.862;2023-07-31T09:27:47;1.87;;;1.40;;
12042;SDS011;6082;49.306;12.862;2023-07-31T09:30:14;2.33;;;1.43;;
12042;SDS011;6082;49.306;12.862;2023-07-31T09:32:41;2.13;;;1.50;;
12042;SDS011;6082;49.306;12.862;2023-07-31T09:37:50;3.03;;;1.53;;
12042;SDS011;6082;49.306;12.862;2023-07-31T09:40:30;2.30;;;1.73;;
12042;SDS011;6082;49.306;12.862;2023-07-31T09:43:01;3.33;;;1.70;;
12042;SDS011;6082;49.306;12.862;2023-07-31T09:45:28;3.37;;;1.73;;
12042;SDS011;6082;49.306;12.862;2023-07-31T09:47:54;1.87;;;1.50;;
12042;SDS011;6082;49.306;12.862;2023-07-31T09:50:21;1.50;;;1.40;;
12042;SDS011;6082;49.306;12.862;2023-07-31T09:52:48;2.13;;;1.30;;
12042;SDS011;6082;49.306;12.862;2023-07-31T09:55:15;2.83;;;1.60;;
12042;SDS011;6082;49.306;12.862;2023-07-31T09:57:42;2.63;;;1.90;;
12042;SDS011;6082;49.306;12.862;2023-07-31T10:00:14;1.83;;;1.60;;
12042;SDS011;6082;49.306;12.862;2023-07-31T10:02:41;4.03;;;1.83;;
12042;SDS011;6082;49.306;12.862;2023-07-31T10:05:09;2.60;;;1.80;;
12042;SDS011;6082;49.306;12.862;2023-07-31T10:07:39;2.87;;;1.57;;
12042;SDS011;6082;49.306;12.862;2023-07-31T10:10:07;3.43;;;2.10;;
12042;SDS011;6082;49.306;12.862;2023-07-31T10:12:34;2.07;;;1.57;;
12042;SDS011;6082;49.306;12.862;2023-07-31T10:15:01;1.50;;;1.40;;
12042;SDS011;6082;49.306;12.862;2023-07-31T10:17:28;2.10;;;1.40;;
12042;SDS011;6082;49.306;12.862;2023-07-31T10:19:56;3.87;;;1.77;;
12042;SDS011;6082;49.306;12.862;2023-07-31T10:22:24;3.40;;;1.33;;
12042;SDS011;6082;49.306;12.862;2023-07-31T10:24:50;2.83;;;1.87;;
12042;SDS011;6082;49.306;12.862;2023-07-31T10:27:19;4.37;;;1.47;;
12042;SDS011;6082;49.306;12.862;2023-07-31T10:29:45;3.00;;;1.50;;
12042;SDS011;6082;49.306;12.862;2023-07-31T10:32:13;1.60;;;1.30;;
12042;SDS011;6082;49.306;12.862;2023-07-31T10:34:40;5.83;;;1.53;;
12042;SDS011;6082;49.306;12.862;2023-07-31T10:40:16;2.27;;;1.60;;
12042;SDS011;6082;49.306;12.862;2023-07-31T10:42:51;2.33;;;1.50;;
12042;SDS011;6082;49.306;12.862;2023-07-31T10:45:25;3.93;;;1.50;;
12042;SDS011;6082;49.306;12.862;2023-07-31T10:47:57;3.07;;;1.67;;
12042;SDS011;6082;49.306;12.862;2023-07-31T10:50:28;2.27;;;1.67;;
12042;SDS011;6082;49.306;12.862;2023-07-31T10:52:55;3.93;;;1.60;;
12042;SDS011;6082;49.306;12.862;2023-07-31T10:55:41;1.73;;;1.60;;
12042;SDS011;6082;49.306;12.862;2023-07-31T10:58:09;1.80;;;1.50;;
12042;SDS011;6082;49.306;12.862;2023-07-31T11:00:40;3.43;;;1.60;;
12042;SDS011;6082;49.306;12.862;2023-07-31T11:03:12;2.30;;;1.57;;
12042;SDS011;6082;49.306;12.862;2023-07-31T11:08:24;2.00;;;1.17;;
12042;SDS011;6082;49.306;12.862;2023-07-31T11:13:30;3.57;;;1.40;;
12042;SDS011;6082;49.306;12.862;2023-07-31T11:15:56;2.37;;;1.50;;
12042;SDS011;6082;49.306;12.862;2023-07-31T11:18:22;2.77;;;1.53;;
12042;SDS011;6082;49.306;12.862;2023-07-31T11:20:48;2.33;;;1.53;;
12042;SDS011;6082;49.306;12.862;2023-07-31T11:23:15;2.23;;;1.37;;
12042;SDS011;6082;49.306;12.862;2023-07-31T11:25:42;2.30;;;1.53;;
12042;SDS011;6082;49.306;12.862;2023-07-31T11:28:12;2.43;;;1.30;;
12042;SDS011;6082;49.306;12.862;2023-07-31T11:30:42;3.63;;;1.40;;
12042;SDS011;6082;49.306;12.862;2023-07-31T11:33:09;2.13;;;1.37;;
12042;SDS011;6082;49.306;12.862;2023-07-31T11:35:47;2.40;;;1.40;;
12042;SDS011;6082;49.306;12.862;2023-07-31T11:41:01;1.57;;;1.13;;
12042;SDS011;6082;49.306;12.862;2023-07-31T11:43:28;2.83;;;1.73;;
12042;SDS011;6082;49.306;12.862;2023-07-31T11:45:56;3.27;;;1.63;;
12042;SDS011;6082;49.306;12.862;2023-07-31T11:48:29;2.33;;;1.50;;
12042;SDS011;6082;49.306;12.862;2023-07-31T11:51:01;3.63;;;1.50;;
12042;SDS011;6082;49.306;12.862;2023-07-31T11:53:44;2.30;;;1.40;;
12042;SDS011;6082;49.306;12.862;2023-07-31T11:56:14;1.23;;;1.13;;
12042;SDS011;6082;49.306;12.862;2023-07-31T11:58:43;3.50;;;1.40;;
12042;SDS011;6082;49.306;12.862;2023-07-31T12:01:11;2.17;;;1.60;;
12042;SDS011;6082;49.306;12.862;2023-07-31T12:03:39;2.03;;;1.57;;
12042;SDS011;6082;49.306;12.862;2023-07-31T12:06:05;2.50;;;1.30;;
12042;SDS011;6082;49.306;12.862;2023-07-31T12:08:32;2.77;;;1.43;;
12042;SDS011;6082;49.306;12.862;2023-07-31T12:11:02;1.90;;;1.37;;
12042;SDS011;6082;49.306;12.862;2023-07-31T12:13:32;2.80;;;1.47;;
12042;SDS011;6082;49.306;12.862;2023-07-31T12:16:02;2.47;;;1.50;;
12042;SDS011;6082;49.306;12.862;2023-07-31T12:18:38;2.07;;;1.40;;
12042;SDS011;6082;49.306;12.862;2023-07-31T12:21:05;3.93;;;1.70;;
12042;SDS011;6082;49.306;12.862;2023-07-31T12:23:36;2.47;;;1.37;;
12042;SDS011;6082;49.306;12.862;2023-07-31T12:26:12;2.40;;;1.50;;
12042;SDS011;6082;49.306;12.862;2023-07-31T12:31:13;3.63;;;1.50;;
12042;SDS011;6082;49.306;12.862;2023-07-31T12:33:42;4.43;;;1.40;;
12042;SDS011;6082;49.306;12.862;2023-07-31T12:36:11;2.47;;;1.37;;
12042;SDS011;6082;49.306;12.862;2023-07-31T12:38:41;1.73;;;1.53;;
12042;SDS011;6082;49.306;12.862;2023-07-31T12:41:11;2.43;;;1.40;;
12042;SDS011;6082;49.306;12.862;2023-07-31T12:43:38;3.10;;;1.20;;
12042;SDS011;6082;49.306;12.862;2023-07-31T12:46:06;2.33;;;1.63;;
12042;SDS011;6082;49.306;12.862;2023-07-31T12:48:35;4.83;;;1.60;;
12042;SDS011;6082;49.306;12.862;2023-07-31T12:51:02;2.07;;;1.47;;
12042;SDS011;6082;49.306;12.862;2023-07-31T12:53:28;2.77;;;1.53;;
12042;SDS011;6082;49.306;12.862;2023-07-31T12:55:57;3.13;;;1.30;;
12042;SDS011;6082;49.306;12.862;2023-07-31T12:58:23;1.60;;;1.30;;
12042;SDS011;6082;49.306;12.862;2023-07-31T13:00:49;2.37;;;1.57;;
12042;SDS011;6082;49.306;12.862;2023-07-31T13:03:15;2.60;;;1.40;;
12042;SDS011;6082;49.306;12.862;2023-07-31T13:05:41;2.43;;;1.50;;
12042;SDS011;6082;49.306;12.862;2023-07-31T13:08:07;3.00;;;1.73;;
12042;SDS011;6082;49.306;12.862;2023-07-31T13:10:33;1.93;;;1.10;;
12042;SDS011;6082;49.306;12.862;2023-07-31T13:12:58;2.17;;;1.47;;
12042;SDS011;6082;49.306;12.862;2023-07-31T13:15:24;2.17;;;1.50;;
12042;SDS011;6082;49.306;12.862;2023-07-31T13:17:50;2.43;;;1.47;;
12042;SDS011;6082;49.306;12.862;2023-07-31T13:20:16;2.20;;;1.47;;
12042;SDS011;6082;49.306;12.862;2023-07-31T13:22:42;2.37;;;1.50;;
12042;SDS011;6082;49.306;12.862;2023-07-31T13:25:07;1.73;;;1.20;;
12042;SDS011;6082;49.306;12.862;2023-07-31T13:27:34;2.43;;;1.40;;
12042;SDS011;6082;49.306;12.862;2023-07-31T13:30:00;3.10;;;1.30;;
12042;SDS011;6082;49.306;12.862;2023-07-31T13:32:26;2.70;;;1.47;;
12042;SDS011;6082;49.306;12.862;2023-07-31T13:34:52;2.63;;;1.93;;
12042;SDS011;6082;49.306;12.862;2023-07-31T13:37:18;2.60;;;1.40;;
12042;SDS011;6082;49.306;12.862;2023-07-31T13:39:43;1.73;;;1.30;;
12042;SDS011;6082;49.306;12.862;2023-07-31T13:42:09;1.90;;;1.40;;
12042;SDS011;6082;49.306;12.862;2023-07-31T13:44:37;1.60;;;1.47;;
12042;SDS011;6082;49.306;12.862;2023-07-31T13:47:05;3.77;;;1.80;;
12042;SDS011;6082;49.306;12.862;2023-07-31T13:49:31;2.10;;;1.33;;
12042;SDS011;6082;49.306;12.862;2023-07-31T13:51:58;2.10;;;1.20;;
12042;SDS011;6082;49.306;12.862;2023-07-31T13:54:24;2.20;;;1.60;;
12042;SDS011;6082;49.306;12.862;2023-07-31T13:56:50;2.00;;;1.53;;
12042;SDS011;6082;49.306;12.862;2023-07-31T13:59:16;1.33;;;1.20;;
12042;SDS011;6082;49.306;12.862;2023-07-31T14:01:46;2.93;;;1.67;;
12042;SDS011;6082;49.306;12.862;2023-07-31T14:04:12;2.93;;;1.60;;
12042;SDS011;6082;49.306;12.862;2023-07-31T14:06:38;2.67;;;1.57;;
12042;SDS011;6082;49.306;12.862;2023-07-31T14:09:04;2.60;;;1.50;;
12042;SDS011;6082;49.306;12.862;2023-07-31T14:11:33;3.57;;;1.63;;
12042;SDS011;6082;49.306;12.862;2023-07-31T14:13:59;2.50;;;1.57;;
12042;SDS011;6082;49.306;12.862;2023-07-31T14:16:26;1.93;;;1.40;;
12042;SDS011;6082;49.306;12.862;2023-07-31T14:18:52;2.40;;;1.40;;
12042;SDS011;6082;49.306;12.862;2023-07-31T14:21:18;4.87;;;1.80;;
12042;SDS011;6082;49.306;12.862;2023-07-31T14:23:44;1.83;;;1.40;;
12042;SDS011;6082;49.306;12.862;2023-07-31T14:26:10;3.77;;;1.53;;
12042;SDS011;6082;49.306;12.862;2023-07-31T14:28:36;3.83;;;1.60;;
12042;SDS011;6082;49.306;12.862;2023-07-31T14:31:02;2.17;;;1.60;;
12042;SDS011;6082;49.306;12.862;2023-07-31T14:33:28;2.00;;;1.40;;
12042;SDS011;6082;49.306;12.862;2023-07-31T14:35:53;3.97;;;1.63;;
12042;SDS011;6082;49.306;12.862;2023-07-31T14:38:19;3.07;;;1.60;;
12042;SDS011;6082;49.306;12.862;2023-07-31T14:40:45;3.23;;;1.60;;
12042;SDS011;6082;49.306;12.862;2023-07-31T14:43:11;2.40;;;1.50;;
12042;SDS011;6082;49.306;12.862;2023-07-31T14:45:37;1.83;;;1.30;;
12042;SDS011;6082;49.306;12.862;2023-07-31T14:48:03;2.47;;;1.47;;
12042;SDS011;6082;49.306;12.862;2023-07-31T14:50:28;1.70;;;1.60;;
12042;SDS011;6082;49.306;12.862;2023-07-31T14:52:54;2.80;;;1.77;;
12042;SDS011;6082;49.306;12.862;2023-07-31T14:55:20;4.13;;;1.70;;
12042;SDS011;6082;49.306;12.862;2023-07-31T14:57:46;2.80;;;1.50;;
12042;SDS011;6082;49.306;12.862;2023-07-31T15:00:12;1.93;;;1.57;;
12042;SDS011;6082;49.306;12.862;2023-07-31T15:02:38;3.10;;;1.70;;
12042;SDS011;6082;49.306;12.862;2023-07-31T15:05:04;2.63;;;1.80;;
12042;SDS011;6082;49.306;12.862;2023-07-31T15:07:30;2.90;;;1.73;;
12042;SDS011;6082;49.306;12.862;2023-07-31T15:09:57;3.63;;;1.87;;
12042;SDS011;6082;49.306;12.862;2023-07-31T15:12:22;2.67;;;1.90;;